createdAt,value
2019-01-23T00:00:56.576Z,8.00
2019-01-23T00:01:56.561Z,8.10
2019-01-23T00:02:56.540Z,8.10
2019-01-23T00:03:56.529Z,8.00
2019-01-23T00:04:56.513Z,8.10
2019-01-23T00:05:56.503Z,8.00
2019-01-23T00:06:56.518Z,7.40
2019-01-23T00:07:56.482Z,7.20
2019-01-23T00:08:56.468Z,7.80
2019-01-23T00:09:56.461Z,7.40
2019-01-23T00:10:56.451Z,7.50
2019-01-23T00:11:56.455Z,7.80
2019-01-23T00:12:56.436Z,7.30
2019-01-23T00:13:56.419Z,7.40
2019-01-23T00:14:56.405Z,7.30
2019-01-23T00:15:56.389Z,7.50
2019-01-23T00:16:56.404Z,7.70
2019-01-23T00:17:56.365Z,6.80
2019-01-23T00:18:56.369Z,7.20
2019-01-23T00:19:56.343Z,7.10
2019-01-23T00:20:56.332Z,7.20
2019-01-23T00:21:56.338Z,7.70
2019-01-23T00:22:56.309Z,7.50
2019-01-23T00:23:56.305Z,7.50
2019-01-23T00:24:56.304Z,7.70
2019-01-23T00:25:56.277Z,7.50
2019-01-23T00:26:56.283Z,7.30
2019-01-23T00:27:56.253Z,7.50
2019-01-23T00:28:56.241Z,6.90
2019-01-23T00:29:56.237Z,7.60
2019-01-23T00:30:56.231Z,7.20
2019-01-23T00:31:56.222Z,6.80
2019-01-23T00:32:56.196Z,6.90
2019-01-23T00:33:56.186Z,7.10
2019-01-23T00:34:56.174Z,6.80
2019-01-23T00:35:56.168Z,6.80
2019-01-23T00:36:56.175Z,7.20
2019-01-23T00:37:56.181Z,7.10
2019-01-23T00:38:56.134Z,6.90
2019-01-23T00:39:56.121Z,6.80
2019-01-23T00:40:56.107Z,6.90
2019-01-23T00:41:56.113Z,7.00
2019-01-23T00:42:56.095Z,6.50
2019-01-23T00:43:56.072Z,6.70
2019-01-23T00:44:56.061Z,6.50
2019-01-23T00:45:56.056Z,6.80
2019-01-23T00:46:56.067Z,6.90
2019-01-23T00:47:56.027Z,6.90
2019-01-23T00:48:56.025Z,6.80
2019-01-23T00:49:56.008Z,7.00
2019-01-23T00:50:55.994Z,6.60
2019-01-23T00:51:55.981Z,7.00
2019-01-23T00:52:55.989Z,7.10
2019-01-23T00:53:55.959Z,6.60
2019-01-23T00:54:55.966Z,6.70
2019-01-23T00:55:55.937Z,6.90
2019-01-23T00:56:55.931Z,6.70
2019-01-23T00:57:55.937Z,6.80
2019-01-23T00:58:55.902Z,7.00
2019-01-23T00:59:55.926Z,6.60
2019-01-23T01:00:55.896Z,6.40
2019-01-23T01:01:55.868Z,6.70
2019-01-23T01:02:55.877Z,6.50
2019-01-23T01:03:55.845Z,6.50
2019-01-23T01:04:55.833Z,6.30
2019-01-23T01:05:55.823Z,6.30
2019-01-23T01:06:55.824Z,6.40
2019-01-23T01:07:55.824Z,6.60
2019-01-23T01:08:55.788Z,6.60
2019-01-23T01:09:55.775Z,6.70
2019-01-23T01:10:55.765Z,5.90
2019-01-23T01:11:55.757Z,6.40
2019-01-23T01:12:55.794Z,6.50
2019-01-23T01:13:55.729Z,6.80
2019-01-23T01:14:55.720Z,7.00
2019-01-23T01:15:55.707Z,6.20
2019-01-23T01:16:55.702Z,6.30
2019-01-23T01:17:55.704Z,6.20
2019-01-23T01:18:55.693Z,6.70
2019-01-23T01:19:55.668Z,6.60
2019-01-23T01:20:55.651Z,6.30
2019-01-23T01:21:55.645Z,6.90
2019-01-23T01:22:55.648Z,6.40
2019-01-23T01:23:55.624Z,6.10
2019-01-23T01:24:55.614Z,5.90
2019-01-23T01:25:55.602Z,6.20
2019-01-23T01:26:55.581Z,6.20
2019-01-23T01:27:55.585Z,6.00
2019-01-23T01:28:56.097Z,6.80
2019-01-23T01:29:55.549Z,6.20
2019-01-23T01:30:55.555Z,6.50
2019-01-23T01:31:55.524Z,6.10
2019-01-23T01:32:55.538Z,6.50
2019-01-23T01:33:55.500Z,6.00
2019-01-23T01:34:55.490Z,6.40
2019-01-23T01:35:55.479Z,6.30
2019-01-23T01:36:55.482Z,6.00
2019-01-23T01:37:55.485Z,6.10
2019-01-23T01:38:55.445Z,5.80
2019-01-23T01:39:55.434Z,6.00
2019-01-23T01:40:55.426Z,6.40
2019-01-23T01:41:55.424Z,6.30
2019-01-23T01:42:55.421Z,5.60
2019-01-23T01:43:55.388Z,6.60
2019-01-23T01:44:55.378Z,6.30
2019-01-23T01:45:55.366Z,6.20
2019-01-23T01:46:55.357Z,6.10
2019-01-23T01:47:55.380Z,6.30
2019-01-23T01:48:55.332Z,6.00
2019-01-23T01:49:55.320Z,6.00
2019-01-23T01:50:55.309Z,5.90
2019-01-23T01:51:55.307Z,6.10
2019-01-23T01:52:55.286Z,6.70
2019-01-23T01:53:55.303Z,6.00
2019-01-23T01:54:55.262Z,6.00
2019-01-23T01:55:55.252Z,5.90
2019-01-23T01:56:55.250Z,6.00
2019-01-23T01:57:55.231Z,5.50
2019-01-23T01:58:55.234Z,5.90
2019-01-23T01:59:55.215Z,5.90
2019-01-23T02:00:55.196Z,5.60
2019-01-23T02:01:55.184Z,5.80
2019-01-23T02:02:55.181Z,6.10
2019-01-23T02:03:55.182Z,6.30
2019-01-23T02:04:55.157Z,6.30
2019-01-23T02:05:55.155Z,5.80
2019-01-23T02:06:55.128Z,6.30
2019-01-23T02:07:55.124Z,5.40
2019-01-23T02:08:55.122Z,5.80
2019-01-23T02:09:55.102Z,6.30
2019-01-23T02:10:55.084Z,5.50
2019-01-23T02:11:55.086Z,5.70
2019-01-23T02:12:55.067Z,5.70
2019-01-23T02:13:55.065Z,5.40
2019-01-23T02:14:55.038Z,5.50
2019-01-23T02:15:55.028Z,5.90
2019-01-23T02:16:55.017Z,5.90
2019-01-23T02:17:55.015Z,5.20
2019-01-23T02:18:55.015Z,5.40
2019-01-23T02:19:54.982Z,5.70
2019-01-23T02:20:54.975Z,5.70
2019-01-23T02:21:54.958Z,6.00
2019-01-23T02:22:54.948Z,5.60
2019-01-23T02:23:54.967Z,5.70
2019-01-23T02:24:54.930Z,5.80
2019-01-23T02:25:54.914Z,5.60
2019-01-23T02:26:54.901Z,5.80
2019-01-23T02:27:54.896Z,5.60
2019-01-23T02:28:54.895Z,5.50
2019-01-23T02:29:54.877Z,5.80
2019-01-23T02:30:54.857Z,5.80
2019-01-23T02:31:54.846Z,5.50
2019-01-23T02:32:54.847Z,5.50
2019-01-23T02:33:54.839Z,5.20
2019-01-23T02:34:54.814Z,5.80
2019-01-23T02:35:54.816Z,5.60
2019-01-23T02:36:54.792Z,5.60
2019-01-23T02:37:54.776Z,5.40
2019-01-23T02:38:54.784Z,5.70
2019-01-23T02:39:54.752Z,6.10
2019-01-23T02:40:54.744Z,5.50
2019-01-23T02:41:54.737Z,5.50
2019-01-23T02:42:54.721Z,5.70
2019-01-23T02:43:54.728Z,6.00
2019-01-23T02:44:54.695Z,5.50
2019-01-23T02:45:54.686Z,5.70
2019-01-23T02:46:54.674Z,5.70
2019-01-23T02:47:54.672Z,5.70
2019-01-23T02:48:54.690Z,5.90
2019-01-23T02:49:54.639Z,5.50
2019-01-23T02:50:54.663Z,5.50
2019-01-23T02:51:54.618Z,5.30
2019-01-23T02:52:54.614Z,5.60
2019-01-23T02:53:54.607Z,5.50
2019-01-23T02:54:54.597Z,5.30
2019-01-23T02:55:54.576Z,5.20
2019-01-23T02:56:54.555Z,5.60
2019-01-23T02:57:54.551Z,5.50
2019-01-23T02:58:54.540Z,5.30
2019-01-23T02:59:54.557Z,5.20
2019-01-23T03:00:54.519Z,5.70
2019-01-23T03:01:54.502Z,5.50
2019-01-23T03:02:54.494Z,5.40
2019-01-23T03:03:54.477Z,5.20
2019-01-23T03:04:54.482Z,5.60
2019-01-23T03:05:54.469Z,5.30
2019-01-23T03:06:54.443Z,5.50
2019-01-23T03:07:54.437Z,5.60
2019-01-23T03:08:54.419Z,5.80
2019-01-23T03:09:54.423Z,5.30
2019-01-23T03:10:54.403Z,5.10
2019-01-23T03:11:54.404Z,5.40
2019-01-23T03:12:54.375Z,5.50
2019-01-23T03:13:54.362Z,5.20
2019-01-23T03:14:54.372Z,5.50
2019-01-23T03:15:54.348Z,5.10
2019-01-23T03:16:54.329Z,5.50
2019-01-23T03:17:54.327Z,5.40
2019-01-23T03:18:54.312Z,5.30
2019-01-23T03:19:54.317Z,5.50
2019-01-23T03:20:54.284Z,5.70
2019-01-23T03:21:54.270Z,5.40
2019-01-23T03:22:54.260Z,5.20
2019-01-23T03:23:54.260Z,5.40
2019-01-23T03:24:54.262Z,5.70
2019-01-23T03:25:54.226Z,5.60
2019-01-23T03:26:54.213Z,5.40
2019-01-23T03:27:54.201Z,5.40
2019-01-23T03:28:54.194Z,5.40
2019-01-23T03:29:54.209Z,5.40
2019-01-23T03:30:54.169Z,5.50
2019-01-23T03:31:54.190Z,5.10
2019-01-23T03:32:54.146Z,5.20
2019-01-23T03:33:54.133Z,5.40
2019-01-23T03:34:54.138Z,5.40
2019-01-23T03:35:54.123Z,5.50
2019-01-23T03:36:54.101Z,6.20
2019-01-23T03:37:54.087Z,5.70
2019-01-23T03:38:54.081Z,5.40
2019-01-23T03:39:54.080Z,5.20
2019-01-23T03:40:54.055Z,5.30
2019-01-23T03:41:54.051Z,5.40
2019-01-23T03:42:54.043Z,5.30
2019-01-23T03:43:54.019Z,5.50
2019-01-23T03:44:54.047Z,5.50
2019-01-23T03:45:53.996Z,4.60
2019-01-23T03:46:53.985Z,5.50
2019-01-23T03:47:53.987Z,5.90
2019-01-23T03:48:53.961Z,5.40
2019-01-23T03:49:53.956Z,4.90
2019-01-23T03:50:53.955Z,5.10
2019-01-23T03:51:53.927Z,5.40
2019-01-23T03:52:53.923Z,5.40
2019-01-23T03:53:53.916Z,5.10
2019-01-23T03:54:53.908Z,5.60
2019-01-23T03:55:53.899Z,5.20
2019-01-23T03:56:53.877Z,5.10
2019-01-23T03:57:53.862Z,5.50
2019-01-23T03:58:53.858Z,5.00
2019-01-23T03:59:53.846Z,5.70
2019-01-23T04:00:53.842Z,5.10
2019-01-23T04:01:53.817Z,5.40
2019-01-23T04:02:53.804Z,5.30
2019-01-23T04:03:53.791Z,5.60
2019-01-23T04:04:53.782Z,5.30
2019-01-23T04:05:53.800Z,5.30
2019-01-23T04:06:53.764Z,5.30
2019-01-23T04:07:53.745Z,5.30
2019-01-23T04:08:53.733Z,5.40
2019-01-23T04:09:53.730Z,5.40
2019-01-23T04:10:53.728Z,5.30
2019-01-23T04:11:53.716Z,5.60
2019-01-23T04:12:53.689Z,5.20
2019-01-23T04:13:53.678Z,5.40
2019-01-23T04:14:53.668Z,5.20
2019-01-23T04:15:53.675Z,5.40
2019-01-23T04:16:53.653Z,5.30
2019-01-23T04:17:53.640Z,5.10
2019-01-23T04:18:53.627Z,4.90
2019-01-23T04:19:53.619Z,5.10
2019-01-23T04:20:53.618Z,5.60
2019-01-23T04:21:53.592Z,5.00
2019-01-23T04:22:53.578Z,5.30
2019-01-23T04:23:53.575Z,5.10
2019-01-23T04:24:53.562Z,5.20
2019-01-23T04:25:53.561Z,4.90
2019-01-23T04:26:53.533Z,5.10
2019-01-23T04:27:53.521Z,5.20
2019-01-23T04:28:53.513Z,5.40
2019-01-23T04:29:53.511Z,4.90
2019-01-23T04:30:53.514Z,5.20
2019-01-23T04:31:53.486Z,5.30
2019-01-23T04:32:53.468Z,5.60
2019-01-23T04:33:53.457Z,5.20
2019-01-23T04:34:53.453Z,5.60
2019-01-23T04:35:53.474Z,5.50
2019-01-23T04:36:53.422Z,5.70
2019-01-23T04:37:53.416Z,4.90
2019-01-23T04:38:53.400Z,5.10
2019-01-23T04:39:53.398Z,5.40
2019-01-23T04:40:53.408Z,5.00
2019-01-23T04:41:53.366Z,5.00
2019-01-23T04:42:53.358Z,5.20
2019-01-23T04:43:53.350Z,5.40
2019-01-23T04:44:53.348Z,5.00
2019-01-23T04:45:53.354Z,5.30
2019-01-23T04:46:53.322Z,5.10
2019-01-23T04:47:53.305Z,5.10
2019-01-23T04:48:53.290Z,5.40
2019-01-23T04:49:53.280Z,5.00
2019-01-23T04:50:53.266Z,4.90
2019-01-23T04:51:53.270Z,5.20
2019-01-23T04:52:53.254Z,5.20
2019-01-23T04:53:53.238Z,4.80
2019-01-23T04:54:53.221Z,5.40
2019-01-23T04:55:53.210Z,5.20
2019-01-23T04:56:53.214Z,5.20
2019-01-23T04:57:53.184Z,5.30
2019-01-23T04:58:53.179Z,5.20
2019-01-23T04:59:53.171Z,5.50
2019-01-23T05:00:53.151Z,5.00
2019-01-23T05:01:53.189Z,5.00
2019-01-23T05:02:53.127Z,5.20
2019-01-23T05:03:53.118Z,5.10
2019-01-23T05:04:53.112Z,5.20
2019-01-23T05:05:53.094Z,5.20
2019-01-23T05:06:53.101Z,4.90
2019-01-23T05:07:53.075Z,5.40
2019-01-23T05:08:54.864Z,5.20
2019-01-23T05:09:53.050Z,5.30
2019-01-23T05:10:53.053Z,4.90
2019-01-23T05:12:14.034Z,5.00
2019-01-23T05:12:53.014Z,5.00
2019-01-23T05:13:53.009Z,5.10
2019-01-23T05:14:52.991Z,5.30
2019-01-23T05:15:52.996Z,5.00
2019-01-23T05:16:52.986Z,5.00
2019-01-23T05:17:53.015Z,5.50
2019-01-23T05:18:52.947Z,5.10
2019-01-23T05:19:52.934Z,5.30
2019-01-23T05:20:52.923Z,5.30
2019-01-23T05:21:52.937Z,5.10
2019-01-23T05:22:52.900Z,5.30
2019-01-23T05:23:52.899Z,5.30
2019-01-23T05:24:52.878Z,5.20
2019-01-23T05:25:52.866Z,5.40
2019-01-23T05:26:52.861Z,5.00
2019-01-23T05:27:52.879Z,5.00
2019-01-23T05:28:52.834Z,5.10
2019-01-23T05:29:55.068Z,5.70
2019-01-23T05:30:52.816Z,6.10
2019-01-23T05:31:52.799Z,5.70
2019-01-23T05:32:52.804Z,6.10
2019-01-23T05:33:52.787Z,5.80
2019-01-23T05:34:52.763Z,6.40
2019-01-23T05:35:52.753Z,7.00
2019-01-23T05:36:52.749Z,6.70
2019-01-23T05:37:52.747Z,7.00
2019-01-23T05:38:52.717Z,6.80
2019-01-23T05:39:52.716Z,6.50
2019-01-23T05:40:52.698Z,6.60
2019-01-23T05:41:52.695Z,6.80
2019-01-23T05:42:52.688Z,7.40
2019-01-23T05:43:52.660Z,7.00
2019-01-23T05:44:52.652Z,6.80
2019-01-23T05:45:52.646Z,6.60
2019-01-23T05:46:52.632Z,6.60
2019-01-23T05:47:52.638Z,6.20
2019-01-23T05:48:52.603Z,6.50
2019-01-23T05:49:52.594Z,6.10
2019-01-23T05:50:52.587Z,5.70
2019-01-23T05:51:52.581Z,5.70
2019-01-23T05:52:52.591Z,5.60
2019-01-23T05:53:52.580Z,5.90
2019-01-23T05:54:52.543Z,5.80
2019-01-23T05:55:52.526Z,6.00
2019-01-23T05:56:52.513Z,6.50
2019-01-23T05:57:52.532Z,6.20
2019-01-23T05:58:52.499Z,6.70
2019-01-23T05:59:52.481Z,7.10
2019-01-23T06:00:52.467Z,6.40
2019-01-23T06:01:52.465Z,6.70
2019-01-23T06:02:52.467Z,6.40
2019-01-23T06:03:52.443Z,6.20
2019-01-23T06:04:52.429Z,6.30
2019-01-23T06:05:52.412Z,6.10
2019-01-23T06:06:52.410Z,5.80
2019-01-23T06:07:52.402Z,6.50
2019-01-23T06:08:52.398Z,6.10
2019-01-23T06:09:52.374Z,5.50
2019-01-23T06:10:52.354Z,5.70
2019-01-23T06:11:52.342Z,5.60
2019-01-23T06:12:52.349Z,5.40
2019-01-23T06:13:52.320Z,6.00
2019-01-23T06:14:52.323Z,5.50
2019-01-23T06:15:52.299Z,5.60
2019-01-23T06:16:52.295Z,5.50
2019-01-23T06:17:52.297Z,5.40
2019-01-23T06:18:52.264Z,5.10
2019-01-23T06:19:52.257Z,5.20
2019-01-23T06:20:52.254Z,4.90
2019-01-23T06:21:52.229Z,5.40
2019-01-23T06:22:52.235Z,5.10
2019-01-23T06:23:52.215Z,5.20
2019-01-23T06:24:52.196Z,4.90
2019-01-23T06:25:52.184Z,5.00
2019-01-23T06:26:52.180Z,5.00
2019-01-23T06:27:52.198Z,4.90
2019-01-23T06:28:52.157Z,5.20
2019-01-23T06:29:52.142Z,5.10
2019-01-23T06:30:52.141Z,5.40
2019-01-23T06:31:52.126Z,5.30
2019-01-23T06:32:52.122Z,5.10
2019-01-23T06:33:52.110Z,5.30
2019-01-23T06:34:52.085Z,5.10
2019-01-23T06:35:52.088Z,4.90
2019-01-23T06:36:52.060Z,5.20
2019-01-23T06:37:52.048Z,5.00
2019-01-23T06:38:52.066Z,5.10
2019-01-23T06:39:52.025Z,5.20
2019-01-23T06:40:52.014Z,5.30
2019-01-23T06:41:52.002Z,5.00
2019-01-23T06:42:51.997Z,5.00
2019-01-23T06:43:51.996Z,5.20
2019-01-23T06:44:51.979Z,5.40
2019-01-23T06:45:51.963Z,5.20
2019-01-23T06:46:51.946Z,5.10
2019-01-23T06:47:51.942Z,5.00
2019-01-23T06:48:51.940Z,5.30
2019-01-23T06:49:51.919Z,5.70
2019-01-23T06:50:51.917Z,5.00
2019-01-23T06:51:51.890Z,4.60
2019-01-23T06:52:51.888Z,4.40
2019-01-23T06:53:51.890Z,4.90
2019-01-23T06:54:51.856Z,4.80
2019-01-23T06:55:51.845Z,5.00
2019-01-23T06:56:51.842Z,5.00
2019-01-23T06:57:51.821Z,4.90
2019-01-23T06:58:51.837Z,5.00
2019-01-23T06:59:51.800Z,4.90
2019-01-23T07:00:51.788Z,4.80
2019-01-23T07:01:51.787Z,4.80
2019-01-23T07:02:51.772Z,5.00
2019-01-23T07:03:51.779Z,5.00
2019-01-23T07:04:51.742Z,4.60
2019-01-23T07:05:51.732Z,5.30
2019-01-23T07:06:51.729Z,5.00
2019-01-23T07:07:51.706Z,5.30
2019-01-23T07:08:51.723Z,5.20
2019-01-23T07:09:51.696Z,5.20
2019-01-23T07:10:51.673Z,5.20
2019-01-23T07:11:51.664Z,5.10
2019-01-23T07:12:51.650Z,4.90
2019-01-23T07:13:51.657Z,4.90
2019-01-23T07:14:51.644Z,5.00
2019-01-23T07:15:51.619Z,5.10
2019-01-23T07:16:51.613Z,5.30
2019-01-23T07:17:51.605Z,5.10
2019-01-23T07:18:51.619Z,5.20
2019-01-23T07:19:51.572Z,5.20
2019-01-23T07:20:51.571Z,5.50
2019-01-23T07:21:51.550Z,5.20
2019-01-23T07:22:51.545Z,5.40
2019-01-23T07:23:51.528Z,4.90
2019-01-23T07:24:51.538Z,5.10
2019-01-23T07:25:51.509Z,5.40
2019-01-23T07:26:51.498Z,5.20
2019-01-23T07:27:51.490Z,5.50
2019-01-23T07:28:51.476Z,5.20
2019-01-23T07:29:51.474Z,5.10
2019-01-23T07:30:51.455Z,5.20
2019-01-23T07:31:51.436Z,5.40
2019-01-23T07:32:51.443Z,5.10
2019-01-23T07:33:51.419Z,5.00
2019-01-23T07:34:51.418Z,5.40
2019-01-23T07:35:51.391Z,5.30
2019-01-23T07:36:51.381Z,5.10
2019-01-23T07:37:51.371Z,5.20
2019-01-23T07:38:51.364Z,5.30
2019-01-23T07:39:51.370Z,5.30
2019-01-23T07:40:51.331Z,5.10
2019-01-23T07:41:51.326Z,5.10
2019-01-23T07:42:51.316Z,5.20
2019-01-23T07:43:51.300Z,4.70
2019-01-23T07:44:51.319Z,4.70
2019-01-23T07:45:51.282Z,5.10
2019-01-23T07:46:51.265Z,4.50
2019-01-23T07:47:51.255Z,4.70
2019-01-23T07:48:51.245Z,4.90
2019-01-23T07:49:51.247Z,4.60
2019-01-23T07:50:51.233Z,4.90
2019-01-23T07:51:51.206Z,5.00
2019-01-23T07:52:51.198Z,5.30
2019-01-23T07:53:51.291Z,5.30
2019-01-23T07:54:51.188Z,5.30
2019-01-23T07:55:51.160Z,5.50
2019-01-23T07:56:51.165Z,6.00
2019-01-23T07:57:51.144Z,5.70
2019-01-23T07:58:51.129Z,5.30
2019-01-23T07:59:51.134Z,5.90
2019-01-23T08:00:51.104Z,5.90
2019-01-23T08:01:51.097Z,5.40
2019-01-23T08:02:51.095Z,4.80
2019-01-23T08:03:51.069Z,5.60
2019-01-23T08:04:51.074Z,5.20
2019-01-23T08:05:51.050Z,5.70
2019-01-23T08:06:51.039Z,5.90
2019-01-23T08:07:51.037Z,5.60
2019-01-23T08:08:51.029Z,6.30
2019-01-23T08:09:51.019Z,6.00
2019-01-23T08:10:50.994Z,6.20
2019-01-23T08:11:50.979Z,6.20
2019-01-23T08:12:50.966Z,6.30
2019-01-23T08:13:51.025Z,6.50
2019-01-23T08:14:50.976Z,6.40
2019-01-23T08:15:50.933Z,6.60
2019-01-23T08:16:50.921Z,5.80
2019-01-23T08:17:50.911Z,6.50
2019-01-23T08:18:50.908Z,6.20
2019-01-23T08:19:50.887Z,6.20
2019-01-23T08:20:50.900Z,6.50
2019-01-23T08:21:50.864Z,6.30
2019-01-23T08:22:50.856Z,6.50
2019-01-23T08:23:50.842Z,6.10
2019-01-23T08:24:50.839Z,6.00
2019-01-23T08:25:50.839Z,6.40
2019-01-23T08:26:50.824Z,6.00
2019-01-23T08:27:50.794Z,5.80
2019-01-23T08:28:50.802Z,6.10
2019-01-23T08:29:50.774Z,5.90
2019-01-23T08:30:50.782Z,6.10
2019-01-23T08:31:50.759Z,5.70
2019-01-23T08:32:50.748Z,5.80
2019-01-23T08:33:50.726Z,6.10
2019-01-23T08:34:50.715Z,5.80
2019-01-23T08:35:50.721Z,5.60
2019-01-23T08:36:50.695Z,5.70
2019-01-23T08:37:50.689Z,6.00
2019-01-23T08:38:50.679Z,5.90
2019-01-23T08:39:50.663Z,5.70
2019-01-23T08:40:50.664Z,5.90
2019-01-23T08:41:50.637Z,5.40
2019-01-23T08:42:50.630Z,6.00
2019-01-23T08:43:50.612Z,5.60
2019-01-23T08:44:50.617Z,5.30
2019-01-23T08:45:50.607Z,5.60
2019-01-23T08:46:50.578Z,5.20
2019-01-23T08:47:50.569Z,5.70
2019-01-23T08:48:50.559Z,5.30
2019-01-23T08:49:50.546Z,5.70
2019-01-23T08:50:50.568Z,5.20
2019-01-23T08:51:50.523Z,5.30
2019-01-23T08:52:50.516Z,5.40
2019-01-23T08:53:50.502Z,5.40
2019-01-23T08:54:50.489Z,5.00
2019-01-23T08:55:53.699Z,5.40
2019-01-23T08:56:50.482Z,5.10
2019-01-23T08:57:50.454Z,5.40
2019-01-23T08:58:50.443Z,5.50
2019-01-23T08:59:50.432Z,5.30
2019-01-23T09:00:50.436Z,5.60
2019-01-23T09:01:50.409Z,5.10
2019-01-23T09:02:50.412Z,5.50
2019-01-23T09:03:50.386Z,5.00
2019-01-23T09:04:50.383Z,5.30
2019-01-23T09:05:50.385Z,5.10
2019-01-23T09:06:50.351Z,4.80
2019-01-23T09:07:50.345Z,5.00
2019-01-23T09:08:50.335Z,5.00
2019-01-23T09:09:50.319Z,5.20
2019-01-23T09:10:50.338Z,5.00
2019-01-23T09:11:50.301Z,5.30
2019-01-23T09:12:50.288Z,4.90
2019-01-23T09:13:50.271Z,5.00
2019-01-23T09:14:50.272Z,5.00
2019-01-23T09:15:50.250Z,5.10
2019-01-23T09:16:50.255Z,5.00
2019-01-23T09:17:50.234Z,4.90
2019-01-23T09:18:50.222Z,5.10
2019-01-23T09:19:50.210Z,5.00
2019-01-23T09:20:50.203Z,4.80
2019-01-23T09:21:50.203Z,4.80
2019-01-23T09:22:50.177Z,4.50
2019-01-23T09:23:50.158Z,4.90
2019-01-23T09:24:50.146Z,4.70
2019-01-23T09:25:51.627Z,4.50
2019-01-23T09:26:50.147Z,5.10
2019-01-23T09:27:50.122Z,4.90
2019-01-23T09:28:50.102Z,5.10
2019-01-23T09:29:50.091Z,4.90
2019-01-23T09:30:52.729Z,4.20
2019-01-23T09:31:50.091Z,4.60
2019-01-23T09:32:50.068Z,4.70
2019-01-23T09:33:50.053Z,4.80
2019-01-23T09:34:50.033Z,5.00
2019-01-23T09:35:50.024Z,4.80
2019-01-23T09:36:50.027Z,4.40
2019-01-23T09:37:50.007Z,4.80
2019-01-23T09:38:50.004Z,4.40
2019-01-23T09:39:49.979Z,4.50
2019-01-23T09:40:49.967Z,4.90
2019-01-23T09:41:49.979Z,4.50
2019-01-23T09:42:49.958Z,4.70
2019-01-23T09:43:49.932Z,4.40
2019-01-23T09:44:49.932Z,5.00
2019-01-23T09:45:49.917Z,4.90
2019-01-23T09:46:49.941Z,4.60
2019-01-23T09:47:49.889Z,4.40
2019-01-23T09:48:49.876Z,4.40
2019-01-23T09:49:49.905Z,4.50
2019-01-23T09:50:49.885Z,4.60
2019-01-23T09:51:49.845Z,4.60
2019-01-23T09:52:49.847Z,4.30
2019-01-23T09:53:49.821Z,4.80
2019-01-23T09:54:49.814Z,4.70
2019-01-23T09:55:49.799Z,4.60
2019-01-23T09:56:49.798Z,4.60
2019-01-23T09:57:49.799Z,4.50
2019-01-23T09:58:49.790Z,4.70
2019-01-23T09:59:49.755Z,4.90
2019-01-23T10:00:49.743Z,4.90
2019-01-23T10:01:49.735Z,4.80
2019-01-23T10:02:49.758Z,4.70
2019-01-23T10:03:49.721Z,4.40
2019-01-23T10:04:49.705Z,4.70
2019-01-23T10:05:49.687Z,4.50
2019-01-23T10:06:49.677Z,4.50
2019-01-23T10:07:49.681Z,4.70
2019-01-23T10:08:49.667Z,4.60
2019-01-23T10:09:49.642Z,4.60
2019-01-23T10:10:49.638Z,4.50
2019-01-23T10:11:49.620Z,4.50
2019-01-23T10:12:49.627Z,4.50
2019-01-23T10:13:49.599Z,4.80
2019-01-23T10:14:49.600Z,4.50
2019-01-23T10:15:49.584Z,4.30
2019-01-23T10:16:49.566Z,4.50
2019-01-23T10:17:49.578Z,4.40
2019-01-23T10:18:55.818Z,4.60
2019-01-23T10:19:50.530Z,4.40
2019-01-23T10:20:49.532Z,4.50
2019-01-23T10:21:49.507Z,4.60
2019-01-23T10:22:49.513Z,4.40
2019-01-23T10:23:49.495Z,4.40
2019-01-23T10:24:49.476Z,4.50
2019-01-23T10:25:49.467Z,4.50
2019-01-23T10:26:49.462Z,4.40
2019-01-23T10:27:49.480Z,4.20
2019-01-23T10:28:49.432Z,4.50
2019-01-23T10:29:49.426Z,4.30
2019-01-23T10:30:49.417Z,4.40
2019-01-23T10:31:49.398Z,4.10
2019-01-23T10:32:49.394Z,4.50
2019-01-23T10:33:49.399Z,4.40
2019-01-23T10:34:49.365Z,4.30
2019-01-23T10:35:49.354Z,4.00
2019-01-23T10:36:49.340Z,4.00
2019-01-23T10:37:49.328Z,4.40
2019-01-23T10:38:49.346Z,4.50
2019-01-23T10:39:49.308Z,4.40
2019-01-23T10:40:49.299Z,4.40
2019-01-23T10:41:49.286Z,4.30
2019-01-23T10:42:49.275Z,4.40
2019-01-23T10:43:49.284Z,4.10
2019-01-23T10:44:49.268Z,4.30
2019-01-23T10:45:49.243Z,4.00
2019-01-23T10:46:49.230Z,4.30
2019-01-23T10:47:55.901Z,4.60
2019-01-23T10:48:50.244Z,4.50
2019-01-23T10:49:49.196Z,4.40
2019-01-23T10:50:49.195Z,4.60
2019-01-23T10:51:49.174Z,4.20
2019-01-23T10:52:49.164Z,4.30
2019-01-23T10:53:49.166Z,4.40
2019-01-23T10:54:49.158Z,4.10
2019-01-23T10:55:49.130Z,4.20
2019-01-23T10:56:49.123Z,4.30
2019-01-23T10:57:49.113Z,4.10
2019-01-23T10:58:49.098Z,4.10
2019-01-23T10:59:49.103Z,4.20
2019-01-23T11:00:49.079Z,4.20
2019-01-23T11:01:49.068Z,4.00
2019-01-23T11:02:49.061Z,4.10
2019-01-23T11:03:49.040Z,4.00
2019-01-23T11:04:49.046Z,4.40
2019-01-23T11:05:49.021Z,4.00
2019-01-23T11:06:49.018Z,4.60
2019-01-23T11:07:48.997Z,4.40
2019-01-23T11:08:49.010Z,4.20
2019-01-23T11:09:48.991Z,4.20
2019-01-23T11:10:48.964Z,3.90
2019-01-23T11:11:48.949Z,4.00
2019-01-23T11:12:48.947Z,4.30
2019-01-23T11:13:48.930Z,4.30
2019-01-23T11:14:48.954Z,4.10
2019-01-23T11:15:48.908Z,4.00
2019-01-23T11:16:48.925Z,4.30
2019-01-23T11:17:48.885Z,4.20
2019-01-23T11:18:48.874Z,4.40
2019-01-23T11:19:48.883Z,4.30
2019-01-23T11:20:48.857Z,4.40
2019-01-23T11:21:48.859Z,4.30
2019-01-23T11:22:48.830Z,4.50
2019-01-23T11:23:48.826Z,4.20
2019-01-23T11:24:48.823Z,4.30
2019-01-23T11:25:48.796Z,4.00
2019-01-23T11:26:48.786Z,4.30
2019-01-23T11:27:48.795Z,4.60
2019-01-23T11:28:48.765Z,3.90
2019-01-23T11:29:48.789Z,4.20
2019-01-23T11:30:48.748Z,4.60
2019-01-23T11:31:48.735Z,4.50
2019-01-23T11:32:48.719Z,4.00
2019-01-23T11:33:48.723Z,4.40
2019-01-23T11:34:48.714Z,4.70
2019-01-23T11:35:48.686Z,4.20
2019-01-23T11:36:48.681Z,4.30
2019-01-23T11:37:48.672Z,4.40
2019-01-23T11:38:48.653Z,4.20
2019-01-23T11:39:48.668Z,4.40
2019-01-23T11:40:48.638Z,4.30
2019-01-23T11:41:48.620Z,4.50
2019-01-23T11:42:48.617Z,4.30
2019-01-23T11:43:48.602Z,4.20
2019-01-23T11:44:48.633Z,4.40
2019-01-23T11:45:48.585Z,4.50
2019-01-23T11:46:48.572Z,4.30
2019-01-23T11:47:48.557Z,4.70
2019-01-23T11:48:48.546Z,4.20
2019-01-23T11:49:48.543Z,4.60
2019-01-23T11:50:48.542Z,4.20
2019-01-23T11:51:48.518Z,4.00
2019-01-23T11:52:48.511Z,4.10
2019-01-23T11:53:48.499Z,4.40
2019-01-23T11:54:48.485Z,4.30
2019-01-23T11:55:48.490Z,4.30
2019-01-23T11:56:48.459Z,4.30
2019-01-23T11:57:48.461Z,4.60
2019-01-23T11:58:48.438Z,4.30
2019-01-23T11:59:48.434Z,4.20
2019-01-23T12:00:48.437Z,3.90
2019-01-23T12:01:48.406Z,4.10
2019-01-23T12:02:48.397Z,4.20
2019-01-23T12:03:48.394Z,4.10
2019-01-23T12:04:48.373Z,4.20
2019-01-23T12:05:48.390Z,4.40
2019-01-23T12:06:48.353Z,4.10
2019-01-23T12:07:48.343Z,4.30
2019-01-23T12:08:48.330Z,4.30
2019-01-23T12:09:48.327Z,4.10
2019-01-23T12:10:48.330Z,4.20
2019-01-23T12:11:48.298Z,4.40
2019-01-23T12:12:48.285Z,4.90
2019-01-23T12:13:48.277Z,4.30
2019-01-23T12:14:48.271Z,4.60
2019-01-23T12:15:48.290Z,4.50
2019-01-23T12:16:48.243Z,4.50
2019-01-23T12:17:48.240Z,4.70
2019-01-23T12:18:48.223Z,4.60
2019-01-23T12:19:48.218Z,4.60
2019-01-23T12:20:48.198Z,4.70
2019-01-23T12:21:48.212Z,4.70
2019-01-23T12:22:48.178Z,4.60
2019-01-23T12:23:48.168Z,5.00
2019-01-23T12:24:48.155Z,4.40
2019-01-23T12:25:48.152Z,5.10
2019-01-23T12:26:48.150Z,4.70
2019-01-23T12:27:48.139Z,4.60
2019-01-23T12:28:48.112Z,4.30
2019-01-23T12:29:48.107Z,4.40
2019-01-23T12:30:48.091Z,4.50
2019-01-23T12:31:48.105Z,4.50
2019-01-23T12:32:48.070Z,4.20
2019-01-23T12:33:48.071Z,4.80
2019-01-23T12:34:48.046Z,4.40
2019-01-23T12:35:48.035Z,4.50
2019-01-23T12:36:48.039Z,4.50
2019-01-23T12:37:48.016Z,4.60
2019-01-23T12:38:48.023Z,4.80
2019-01-23T12:39:47.999Z,4.70
2019-01-23T12:40:47.982Z,4.50
2019-01-23T12:41:47.995Z,4.40
2019-01-23T12:42:47.970Z,4.30
2019-01-23T12:43:47.950Z,4.60
2019-01-23T12:44:47.938Z,4.60
2019-01-23T12:45:47.944Z,4.40
2019-01-23T12:46:47.918Z,4.50
2019-01-23T12:47:47.920Z,4.50
2019-01-23T12:48:47.898Z,4.60
2019-01-23T12:49:47.886Z,4.60
2019-01-23T12:50:47.873Z,4.60
2019-01-23T12:51:47.868Z,4.30
2019-01-23T12:52:47.864Z,4.70
2019-01-23T12:53:47.843Z,4.60
2019-01-23T12:54:47.828Z,4.30
2019-01-23T12:55:47.817Z,4.60
2019-01-23T12:56:47.816Z,4.70
2019-01-23T12:57:47.866Z,4.60
2019-01-23T12:58:47.793Z,4.00
2019-01-23T12:59:47.773Z,4.30
2019-01-23T13:00:47.769Z,5.10
2019-01-23T13:01:47.777Z,4.50
2019-01-23T13:02:47.756Z,4.10
2019-01-23T13:03:47.730Z,4.10
2019-01-23T13:04:47.719Z,4.60
2019-01-23T13:05:47.716Z,4.60
2019-01-23T13:06:47.699Z,4.30
2019-01-23T13:07:47.707Z,4.60
2019-01-23T13:08:47.672Z,4.20
2019-01-23T13:09:47.662Z,4.40
2019-01-23T13:10:47.658Z,4.50
2019-01-23T13:11:47.669Z,4.10
2019-01-23T13:12:47.629Z,4.30
2019-01-23T13:13:47.634Z,4.40
2019-01-23T13:14:47.608Z,4.50
2019-01-23T13:15:47.596Z,4.20
2019-01-23T13:16:47.587Z,4.20
2019-01-23T13:17:47.577Z,4.50
2019-01-23T13:18:47.602Z,4.20